createdAt,value
2022-08-26T09:34:42.378Z,60
2022-08-26T09:37:14.102Z,59
2022-08-26T09:39:46.231Z,59
2022-08-26T09:42:18.604Z,58
2022-08-26T09:44:51.675Z,58
2022-08-26T09:47:29.980Z,58
2022-08-26T09:50:12.951Z,58
2022-08-26T09:52:44.904Z,57
2022-08-26T09:55:17.668Z,57
2022-08-26T09:57:51.417Z,58
2022-08-26T10:00:25.161Z,57
2022-08-26T10:02:59.192Z,57
2022-08-26T10:05:30.870Z,58
2022-08-26T10:08:03.809Z,57
2022-08-26T10:10:39.843Z,57
2022-08-26T10:13:15.674Z,57
2022-08-26T10:15:51.657Z,57
2022-08-26T10:18:23.727Z,57
2022-08-26T10:20:58.302Z,57
2022-08-26T10:23:32.815Z,57
2022-08-26T10:26:07.218Z,57
2022-08-26T10:28:41.447Z,56
2022-08-26T10:31:28.298Z,56
2022-08-26T10:34:01.579Z,56
2022-08-26T10:37:17.019Z,56
2022-08-26T10:39:59.792Z,55
2022-08-26T10:42:30.820Z,54
2022-08-26T10:45:03.908Z,55
2022-08-26T10:47:35.900Z,54
2022-08-26T10:50:14.006Z,54
2022-08-26T10:52:45.912Z,54
2022-08-26T10:55:18.760Z,54
2022-08-26T10:57:50.988Z,54
2022-08-26T11:00:29.038Z,53
2022-08-26T11:03:03.795Z,53
2022-08-26T11:05:36.089Z,53
2022-08-26T11:08:12.051Z,54
2022-08-26T11:10:44.482Z,55
2022-08-26T11:13:18.955Z,54
2022-08-26T11:15:51.238Z,53
2022-08-26T11:18:26.691Z,54
2022-08-26T11:20:59.354Z,54
2022-08-26T11:23:31.708Z,53
2022-08-26T11:26:05.517Z,52
2022-08-26T11:28:45.206Z,51
2022-08-26T11:31:18.441Z,53
2022-08-26T11:33:54.404Z,53
2022-08-26T11:36:25.856Z,52
2022-08-26T11:38:59.127Z,51
2022-08-26T11:41:30.467Z,52
2022-08-26T11:44:03.531Z,51
2022-08-26T11:46:37.270Z,53
2022-08-26T11:49:10.605Z,52
2022-08-26T11:51:50.143Z,52
2022-08-26T11:54:36.605Z,53
2022-08-26T11:57:12.579Z,53
2022-08-26T11:59:43.565Z,53
2022-08-26T12:02:18.554Z,53
2022-08-26T12:04:52.217Z,52
2022-08-26T12:07:26.087Z,53
2022-08-26T12:10:00.626Z,53
2022-08-26T12:12:36.850Z,53
2022-08-26T12:15:07.965Z,52
2022-08-26T12:17:41.626Z,49
2022-08-26T12:20:15.188Z,47
2022-08-26T12:22:49.613Z,50
2022-08-26T12:25:22.313Z,51
2022-08-26T12:27:55.194Z,51
2022-08-26T12:30:27.811Z,53
2022-08-26T12:33:23.806Z,53
2022-08-26T12:35:58.163Z,53
2022-08-26T12:38:29.463Z,51
2022-08-26T12:41:02.592Z,48
2022-08-26T12:43:34.873Z,51
2022-08-26T12:46:10.767Z,50
2022-08-26T12:48:44.376Z,51
2022-08-26T12:51:17.266Z,51
2022-08-26T12:53:50.148Z,49
2022-08-26T12:56:23.027Z,50
2022-08-26T12:58:55.501Z,50
2022-08-26T13:01:29.890Z,49
2022-08-26T13:04:02.071Z,49
2022-08-26T13:06:34.451Z,48
2022-08-26T13:09:07.405Z,49
2022-08-26T13:11:40.045Z,50
2022-08-26T13:14:25.184Z,51
2022-08-26T13:16:56.283Z,51
2022-08-26T13:19:29.625Z,51
2022-08-26T13:22:01.971Z,52
2022-08-26T13:24:34.377Z,52
2022-08-26T13:27:07.511Z,51
2022-08-26T13:29:41.915Z,52
2022-08-26T13:32:14.147Z,53
2022-08-26T13:34:51.945Z,54
2022-08-26T13:37:36.108Z,54
2022-08-26T13:40:07.593Z,55
2022-08-26T13:42:50.694Z,55
2022-08-26T13:45:21.661Z,55
2022-08-26T13:47:53.716Z,55
2022-08-26T13:50:26.329Z,55
2022-08-26T13:52:59.463Z,55
2022-08-26T13:55:32.207Z,56
2022-08-26T13:58:05.346Z,56
2022-08-26T14:00:38.075Z,56
2022-08-26T14:03:14.485Z,55
2022-08-26T14:05:46.034Z,55
2022-08-26T14:08:18.550Z,55
2022-08-26T14:10:52.007Z,56
2022-08-26T14:13:24.272Z,56
2022-08-26T14:15:57.212Z,56
2022-08-26T14:18:29.687Z,54
2022-08-26T14:21:03.298Z,54
2022-08-26T14:23:35.715Z,54
2022-08-26T14:26:16.841Z,55
2022-08-26T14:29:00.802Z,54
2022-08-26T14:31:34.597Z,54
2022-08-26T14:34:07.335Z,54
2022-08-26T14:36:40.146Z,54
2022-08-26T14:39:13.373Z,54
2022-08-26T14:41:55.854Z,55
2022-08-26T14:44:26.657Z,53
2022-08-26T14:47:00.226Z,54
2022-08-26T14:49:32.761Z,55
2022-08-26T14:52:05.469Z,55
2022-08-26T14:54:38.507Z,56
2022-08-26T14:57:12.107Z,56
2022-08-26T14:59:51.546Z,58
2022-08-26T15:02:35.427Z,58
2022-08-26T15:05:06.782Z,58
2022-08-26T15:07:39.925Z,58
2022-08-26T15:10:12.929Z,58
2022-08-26T15:12:45.759Z,58
2022-08-26T15:15:16.807Z,58
2022-08-26T15:17:50.111Z,59
2022-08-26T15:20:22.641Z,59
2022-08-26T15:22:56.186Z,59
2022-08-26T15:25:37.571Z,59
2022-08-26T15:28:10.799Z,59
2022-08-26T15:30:43.539Z,59
2022-08-26T15:33:16.426Z,59
2022-08-26T15:35:49.416Z,59
2022-08-26T15:38:22.275Z,59
2022-08-26T15:40:58.721Z,59
2022-08-26T15:43:32.632Z,59
2022-08-26T15:46:06.388Z,60
2022-08-26T15:48:39.101Z,60
2022-08-26T15:51:12.087Z,60
2022-08-26T15:53:44.488Z,60
2022-08-26T15:56:18.243Z,60
2022-08-26T15:58:57.055Z,60
2022-08-26T16:01:30.831Z,60
2022-08-26T16:04:03.563Z,60
2022-08-26T16:06:36.439Z,60
2022-08-26T16:09:09.977Z,60
2022-08-26T16:11:42.423Z,59
2022-08-26T16:14:15.342Z,59
2022-08-26T16:16:48.077Z,60
2022-08-26T16:19:20.859Z,60
2022-08-26T16:21:53.795Z,60
2022-08-26T16:24:31.546Z,60
2022-08-26T16:27:02.706Z,60
2022-08-26T16:29:35.683Z,60
2022-08-26T16:32:08.493Z,60
2022-08-26T16:34:57.848Z,60
2022-08-26T16:37:28.647Z,60
2022-08-26T16:40:02.940Z,61
2022-08-26T16:42:35.024Z,60
2022-08-26T16:45:08.029Z,60
2022-08-26T16:47:40.537Z,61
2022-08-26T16:50:13.527Z,61
2022-08-26T16:52:56.208Z,60
2022-08-26T16:55:27.801Z,61
2022-08-26T16:57:59.449Z,61
2022-08-26T17:00:32.506Z,61
2022-08-26T17:03:05.521Z,61
2022-08-26T17:05:37.943Z,61
2022-08-26T17:08:12.354Z,61
2022-08-26T17:10:59.513Z,61
2022-08-26T17:13:36.789Z,62
2022-08-26T17:16:08.879Z,61
2022-08-26T17:18:40.823Z,61
2022-08-26T17:21:14.265Z,61
2022-08-26T17:23:46.728Z,61
2022-08-26T17:26:19.759Z,61
2022-08-26T17:28:52.845Z,62
2022-08-26T17:31:26.680Z,62
2022-08-26T17:33:59.303Z,61
2022-08-26T17:36:31.853Z,62
2022-08-26T17:39:04.934Z,62
2022-08-26T17:41:37.329Z,62
2022-08-26T17:44:10.091Z,62
2022-08-26T17:46:41.030Z,62
2022-08-26T17:49:13.519Z,63
2022-08-26T17:51:45.905Z,64
2022-08-26T17:54:18.186Z,64
2022-08-26T17:56:51.166Z,65
2022-08-26T17:59:32.412Z,65
2022-08-26T18:02:03.767Z,66
2022-08-26T18:04:35.877Z,66
2022-08-26T18:07:08.883Z,67
2022-08-26T18:09:41.747Z,67
2022-08-26T18:12:14.860Z,68
2022-08-26T18:14:47.364Z,69
2022-08-26T18:17:20.505Z,70
2022-08-26T18:19:52.876Z,69
2022-08-26T18:22:26.196Z,70
2022-08-26T18:25:00.479Z,70
2022-08-26T18:27:32.159Z,70
2022-08-26T18:30:05.084Z,70
2022-08-26T18:32:37.825Z,70
2022-08-26T18:35:10.121Z,71
2022-08-26T18:37:42.904Z,71
2022-08-26T18:40:16.039Z,73
2022-08-26T18:42:54.985Z,72
2022-08-26T18:45:26.363Z,72
2022-08-26T18:47:58.905Z,72
2022-08-26T18:50:31.483Z,72
2022-08-26T18:53:05.046Z,73
2022-08-26T18:55:37.448Z,73
2022-08-26T18:58:12.673Z,73
2022-08-26T19:00:44.560Z,73
2022-08-26T19:03:19.961Z,73
2022-08-26T19:05:51.826Z,73
2022-08-26T19:08:25.585Z,73
2022-08-26T19:10:57.720Z,73
2022-08-26T19:13:30.490Z,73
2022-08-26T19:16:03.845Z,74
2022-08-26T19:18:38.141Z,74
2022-08-26T19:21:10.775Z,75
2022-08-26T19:23:43.117Z,75
2022-08-26T19:26:15.814Z,75
2022-08-26T19:28:48.031Z,75
2022-08-26T19:31:21.067Z,75
2022-08-26T19:33:53.296Z,75
2022-08-26T19:36:26.103Z,76
2022-08-26T19:38:58.432Z,76
2022-08-26T19:41:38.933Z,75
2022-08-26T19:44:09.814Z,76
2022-08-26T19:46:42.693Z,76
2022-08-26T19:49:15.389Z,76
2022-08-26T19:51:49.074Z,77
2022-08-26T19:54:21.570Z,77
2022-08-26T19:56:53.969Z,77
2022-08-26T19:59:27.243Z,77
2022-08-26T20:02:11.190Z,77
2022-08-26T20:04:42.507Z,77
2022-08-26T20:07:19.991Z,78
2022-08-26T20:09:51.408Z,77
2022-08-26T20:12:24.026Z,77
2022-08-26T20:14:57.076Z,78
2022-08-26T20:17:29.644Z,78
2022-08-26T20:20:02.530Z,78
2022-08-26T20:22:35.240Z,78
2022-08-26T20:25:07.668Z,78
2022-08-26T20:27:40.509Z,78
2022-08-26T20:30:13.224Z,77
2022-08-26T20:32:46.671Z,77
2022-08-26T20:35:19.264Z,78
2022-08-26T20:37:52.190Z,78
2022-08-26T20:40:25.129Z,77
2022-08-26T20:42:58.429Z,77
2022-08-26T20:45:32.106Z,77
2022-08-26T20:48:04.885Z,77
2022-08-26T20:50:37.588Z,78
2022-08-26T20:53:10.430Z,77
2022-08-26T20:55:42.680Z,77
2022-08-26T20:58:15.606Z,77
2022-08-26T21:00:48.783Z,77
2022-08-26T21:03:21.535Z,78
2022-08-26T21:05:56.254Z,77
2022-08-26T21:08:29.235Z,77
2022-08-26T21:11:08.804Z,78
2022-08-26T21:14:18.006Z,78
2022-08-26T21:16:49.029Z,78
2022-08-26T21:19:21.365Z,77
2022-08-26T21:21:54.105Z,77
2022-08-26T21:24:26.883Z,77
2022-08-26T21:26:59.467Z,77
2022-08-26T21:29:32.267Z,77
2022-08-26T21:32:05.616Z,77
2022-08-26T21:34:40.289Z,77
2022-08-26T21:37:17.923Z,77
2022-08-26T21:39:49.598Z,77
2022-08-26T21:42:22.039Z,77
2022-08-26T21:44:54.995Z,78
2022-08-26T21:47:27.375Z,77
2022-08-26T21:49:59.795Z,77
2022-08-26T21:52:33.267Z,77
2022-08-26T21:55:12.341Z,77
2022-08-26T21:57:43.572Z,77
2022-08-26T22:00:16.750Z,77
2022-08-26T22:02:50.065Z,77
2022-08-26T22:05:23.627Z,77
2022-08-26T22:07:56.026Z,77
2022-08-26T22:10:28.864Z,77
2022-08-26T22:13:01.557Z,78
2022-08-26T22:15:34.440Z,77
2022-08-26T22:18:08.129Z,78
2022-08-26T22:20:40.977Z,78
2022-08-26T22:23:14.249Z,78
2022-08-26T22:25:47.183Z,78
2022-08-26T22:28:20.751Z,78
2022-08-26T22:30:53.403Z,78
2022-08-26T22:33:26.031Z,78
2022-08-26T22:35:59.371Z,78
2022-08-26T22:38:32.714Z,78
2022-08-26T22:41:09.265Z,78
2022-08-26T22:43:41.199Z,78
2022-08-26T22:46:14.559Z,78
2022-08-26T22:48:55.121Z,78
2022-08-26T22:51:26.618Z,79
2022-08-26T22:53:59.251Z,79
2022-08-26T22:56:32.604Z,78
2022-08-26T22:59:05.675Z,78
2022-08-26T23:01:38.865Z,78
2022-08-26T23:04:12.220Z,78
2022-08-26T23:06:48.940Z,78
2022-08-26T23:09:23.031Z,78
2022-08-26T23:11:55.196Z,78
2022-08-26T23:14:28.121Z,78
2022-08-26T23:17:01.954Z,78
2022-08-26T23:19:34.542Z,78
2022-08-26T23:22:07.399Z,78
2022-08-26T23:24:40.245Z,77
2022-08-26T23:27:13.725Z,77
2022-08-26T23:29:46.753Z,78
2022-08-26T23:32:19.500Z,78
2022-08-26T23:34:53.499Z,78
2022-08-26T23:37:29.095Z,77
2022-08-26T23:40:04.495Z,78
2022-08-26T23:42:36.867Z,78
2022-08-26T23:45:09.351Z,78
2022-08-26T23:47:42.119Z,78
2022-08-26T23:50:14.990Z,78
2022-08-26T23:52:47.979Z,78
2022-08-26T23:55:20.703Z,78
2022-08-26T23:57:53.663Z,78
